createdAt,value
2022-10-25T00:00:00.677Z,1008.99
2022-10-25T00:01:00.768Z,1008.98
2022-10-25T00:02:01.101Z,1008.96
2022-10-25T00:03:00.791Z,1008.99
2022-10-25T00:04:00.815Z,1009.01
2022-10-25T00:05:00.836Z,1009.02
2022-10-25T00:06:00.868Z,1009.01
2022-10-25T00:07:00.921Z,1009.02
2022-10-25T00:08:00.930Z,1009.06
2022-10-25T00:09:01.217Z,1009.07
2022-10-25T00:10:01.480Z,1009.06
2022-10-25T00:11:01.025Z,1009.06
2022-10-25T00:12:01.056Z,1009.05
2022-10-25T00:13:01.087Z,1009.11
2022-10-25T00:15:01.403Z,1009.08
2022-10-25T00:17:01.246Z,1009.07
2022-10-25T00:19:01.377Z,1009.06
2022-10-25T00:20:01.311Z,1009.11
2022-10-25T00:22:01.671Z,1009.09
2022-10-25T00:23:01.425Z,1009.15
2022-10-25T00:24:01.442Z,1009.07
2022-10-25T00:25:01.476Z,1009.13
2022-10-25T00:26:01.502Z,1009.13
2022-10-25T00:27:01.534Z,1009.12
2022-10-25T00:28:01.567Z,1009.13
2022-10-25T00:29:01.945Z,1009.14
2022-10-25T00:30:01.625Z,1009.12
2022-10-25T00:31:01.659Z,1009.14
2022-10-25T00:32:01.685Z,1009.12
2022-10-25T00:33:01.722Z,1009.15
2022-10-25T00:34:01.763Z,1009.17
2022-10-25T00:35:02.084Z,1009.13
2022-10-25T00:36:01.809Z,1009.10
2022-10-25T00:37:01.845Z,1009.11
2022-10-25T00:38:01.941Z,1009.07
2022-10-25T00:39:01.940Z,1009.10
2022-10-25T00:40:01.944Z,1009.11
2022-10-25T00:41:02.223Z,1009.11
2022-10-25T00:42:01.999Z,1009.13
2022-10-25T00:43:02.299Z,1009.12
2022-10-25T00:44:02.125Z,1009.12
2022-10-25T00:45:02.218Z,1009.11
2022-10-25T00:47:02.523Z,1009.15
2022-10-25T00:48:02.202Z,1009.14
2022-10-25T00:49:02.220Z,1009.19
2022-10-25T00:50:02.274Z,1009.19
2022-10-25T00:51:02.301Z,1009.17
2022-10-25T00:52:02.319Z,1009.21
2022-10-25T00:53:03.084Z,1009.22
2022-10-25T00:54:02.704Z,1009.22
2022-10-25T00:55:02.442Z,1009.25
2022-10-25T00:56:02.547Z,1009.24
2022-10-25T00:57:02.477Z,1009.24
2022-10-25T00:58:02.509Z,1009.24
2022-10-25T00:59:02.634Z,1009.27
2022-10-25T01:00:02.572Z,1009.31
2022-10-25T01:01:03.066Z,1009.31
2022-10-25T01:02:02.808Z,1009.30
2022-10-25T01:03:02.674Z,1009.31
2022-10-25T01:04:02.696Z,1009.27
2022-10-25T01:05:02.732Z,1009.29
2022-10-25T01:06:02.756Z,1009.31
2022-10-25T01:07:02.789Z,1009.34
2022-10-25T01:08:03.071Z,1009.40
2022-10-25T01:09:02.855Z,1009.39
2022-10-25T01:10:02.885Z,1009.38
2022-10-25T01:11:02.967Z,1009.40
2022-10-25T01:12:02.946Z,1009.39
2022-10-25T01:14:03.321Z,1009.41
2022-10-25T01:15:03.040Z,1009.44
2022-10-25T01:16:03.077Z,1009.48
2022-10-25T01:17:03.105Z,1009.48
2022-10-25T01:18:03.133Z,1009.45
2022-10-25T01:19:03.184Z,1009.46
2022-10-25T01:20:03.208Z,1009.46
2022-10-25T01:21:03.527Z,1009.44
2022-10-25T01:23:03.438Z,1009.46
2022-10-25T01:24:03.321Z,1009.41
2022-10-25T01:25:03.356Z,1009.43
2022-10-25T01:26:03.405Z,1009.43
2022-10-25T01:27:03.441Z,1009.45
2022-10-25T01:28:03.763Z,1009.44
2022-10-25T01:29:03.489Z,1009.44
2022-10-25T01:30:03.513Z,1009.46
2022-10-25T01:31:03.545Z,1009.45
2022-10-25T01:32:03.680Z,1009.48
2022-10-25T01:33:03.606Z,1009.49
2022-10-25T01:34:03.635Z,1009.49
2022-10-25T01:35:03.919Z,1009.45
2022-10-25T01:36:03.771Z,1009.49
2022-10-25T01:37:03.734Z,1009.45
2022-10-25T01:38:03.760Z,1009.45
2022-10-25T01:39:03.794Z,1009.49
2022-10-25T01:40:03.823Z,1009.50
2022-10-25T01:41:03.855Z,1009.53
2022-10-25T01:42:04.191Z,1009.53
2022-10-25T01:43:03.943Z,1009.51
2022-10-25T01:44:03.951Z,1009.52
2022-10-25T01:45:03.992Z,1009.55
2022-10-25T01:46:04.013Z,1009.56
2022-10-25T01:48:04.376Z,1009.54
2022-10-25T01:49:04.133Z,1009.56
2022-10-25T01:50:04.192Z,1009.58
2022-10-25T01:51:04.220Z,1009.56
2022-10-25T01:52:04.201Z,1009.58
2022-10-25T01:53:04.236Z,1009.57
2022-10-25T01:54:04.566Z,1009.56
2022-10-25T01:55:04.297Z,1009.59
2022-10-25T01:56:04.328Z,1009.58
2022-10-25T01:57:04.366Z,1009.64
2022-10-25T01:59:04.460Z,1009.63
2022-10-25T02:00:04.452Z,1009.65
2022-10-25T02:01:04.835Z,1009.61
2022-10-25T02:02:04.516Z,1009.66
2022-10-25T02:03:04.550Z,1009.56
2022-10-25T02:04:04.575Z,1009.60
2022-10-25T02:05:04.669Z,1009.57
2022-10-25T02:06:04.644Z,1009.63
2022-10-25T02:07:04.973Z,1009.62
2022-10-25T02:09:04.919Z,1009.64
2022-10-25T02:12:04.830Z,1009.64
2022-10-25T02:13:04.859Z,1009.62
2022-10-25T02:14:05.188Z,1009.66
2022-10-25T02:15:04.944Z,1009.64
2022-10-25T02:16:04.955Z,1009.58
2022-10-25T02:17:04.989Z,1009.60
2022-10-25T02:18:05.021Z,1009.65
2022-10-25T02:19:05.109Z,1009.61
2022-10-25T02:20:05.081Z,1009.62
2022-10-25T02:21:05.413Z,1009.67
2022-10-25T02:22:05.139Z,1009.64
2022-10-25T02:23:05.177Z,1009.67
2022-10-25T02:24:05.203Z,1009.64
2022-10-25T02:25:05.236Z,1009.66
2022-10-25T02:26:05.269Z,1009.67
2022-10-25T02:27:05.300Z,1009.59
2022-10-25T02:28:05.580Z,1009.62
2022-10-25T02:29:05.362Z,1009.66
2022-10-25T02:30:05.391Z,1009.62
2022-10-25T02:31:05.467Z,1009.68
2022-10-25T02:32:05.460Z,1009.66
2022-10-25T02:33:05.494Z,1009.67
2022-10-25T02:34:05.519Z,1009.63
2022-10-25T02:35:05.911Z,1009.60
2022-10-25T02:36:05.580Z,1009.69
2022-10-25T02:37:05.613Z,1009.67
2022-10-25T02:38:05.647Z,1009.72
2022-10-25T02:39:05.676Z,1009.70
2022-10-25T02:40:05.710Z,1009.70
2022-10-25T02:41:05.751Z,1009.76
2022-10-25T02:42:06.069Z,1009.75
2022-10-25T02:43:05.912Z,1009.73
2022-10-25T02:44:05.842Z,1009.70
2022-10-25T02:45:05.865Z,1009.76
2022-10-25T02:46:05.994Z,1009.73
2022-10-25T02:47:05.950Z,1009.77
2022-10-25T02:48:05.958Z,1009.75
2022-10-25T02:50:06.363Z,1009.77
2022-10-25T02:51:06.051Z,1009.80
2022-10-25T02:52:06.094Z,1009.75
2022-10-25T02:53:06.117Z,1009.73
2022-10-25T02:54:06.148Z,1009.74
2022-10-25T02:55:06.183Z,1009.78
2022-10-25T02:56:06.210Z,1009.75
2022-10-25T02:57:06.544Z,1009.76
2022-10-25T02:58:06.270Z,1009.76
2022-10-25T02:59:06.372Z,1009.81
2022-10-25T03:00:06.411Z,1009.76
2022-10-25T03:01:06.474Z,1009.81
2022-10-25T03:02:06.395Z,1009.82
2022-10-25T03:03:06.451Z,1009.79
2022-10-25T03:04:06.762Z,1009.82
2022-10-25T03:06:06.543Z,1009.78
2022-10-25T03:08:07.809Z,1009.80
2022-10-25T03:09:06.617Z,1009.78
2022-10-25T03:10:06.654Z,1009.78
2022-10-25T03:11:07.281Z,1009.78
2022-10-25T03:12:06.712Z,1009.80
2022-10-25T03:13:06.756Z,1009.85
2022-10-25T03:14:06.776Z,1009.83
2022-10-25T03:15:06.806Z,1009.86
2022-10-25T03:16:06.837Z,1009.88
2022-10-25T03:18:07.148Z,1009.91
2022-10-25T03:19:06.956Z,1009.94
2022-10-25T03:20:06.977Z,1009.93
2022-10-25T03:21:07.001Z,1009.95
2022-10-25T03:22:07.029Z,1009.95
2022-10-25T03:23:07.057Z,1009.97
2022-10-25T03:24:07.087Z,1009.97
2022-10-25T03:26:07.154Z,1009.97
2022-10-25T03:29:07.295Z,1009.98
2022-10-25T03:30:07.283Z,1009.96
2022-10-25T03:31:07.414Z,1009.96
2022-10-25T03:32:07.746Z,1009.98
2022-10-25T03:33:07.372Z,1009.94
2022-10-25T03:34:07.405Z,1009.91
2022-10-25T03:35:07.453Z,1009.92
2022-10-25T03:37:07.497Z,1009.98
2022-10-25T03:38:07.530Z,1010.02
2022-10-25T03:40:07.844Z,1010.05
2022-10-25T03:41:07.622Z,1010.08
2022-10-25T03:42:07.649Z,1010.08
2022-10-25T03:43:07.759Z,1010.06
2022-10-25T03:44:07.715Z,1010.04
2022-10-25T03:45:07.747Z,1010.00
2022-10-25T03:46:07.817Z,1010.02
2022-10-25T03:47:08.110Z,1010.04
2022-10-25T03:48:07.838Z,1010.03
2022-10-25T03:49:07.872Z,1010.05
2022-10-25T03:50:07.910Z,1010.06
2022-10-25T03:51:08.013Z,1010.12
2022-10-25T03:54:08.278Z,1010.22
2022-10-25T03:55:08.064Z,1010.25
2022-10-25T03:56:08.092Z,1010.24
2022-10-25T03:57:08.127Z,1010.26
2022-10-25T03:58:08.153Z,1010.30
2022-10-25T03:59:08.186Z,1010.27
2022-10-25T04:00:08.316Z,1010.21
2022-10-25T04:01:08.631Z,1010.22
2022-10-25T04:02:08.381Z,1010.23
2022-10-25T04:03:08.337Z,1010.25
2022-10-25T04:04:08.342Z,1010.26
2022-10-25T04:05:08.397Z,1010.27
2022-10-25T04:06:08.441Z,1010.23
2022-10-25T04:07:08.459Z,1010.24
2022-10-25T04:08:08.775Z,1010.21
2022-10-25T04:09:08.532Z,1010.22
2022-10-25T04:10:08.530Z,1010.27
2022-10-25T04:12:08.596Z,1010.28
2022-10-25T04:13:08.626Z,1010.24
2022-10-25T04:14:08.660Z,1010.23
2022-10-25T04:15:08.998Z,1010.26
2022-10-25T04:16:08.724Z,1010.27
2022-10-25T04:17:08.752Z,1010.27
2022-10-25T04:19:08.816Z,1010.30
2022-10-25T04:20:08.850Z,1010.32
2022-10-25T04:21:08.885Z,1010.34
2022-10-25T04:22:09.210Z,1010.29
2022-10-25T04:23:08.960Z,1010.33
2022-10-25T04:25:09.002Z,1010.34
2022-10-25T04:26:09.032Z,1010.34
2022-10-25T04:27:09.065Z,1010.35
2022-10-25T04:29:09.426Z,1010.39
2022-10-25T04:30:09.580Z,1010.39
2022-10-25T04:31:09.193Z,1010.37
2022-10-25T04:32:09.284Z,1010.38
2022-10-25T04:33:09.257Z,1010.41
2022-10-25T04:34:09.286Z,1010.47
2022-10-25T04:35:09.644Z,1010.47
2022-10-25T04:37:09.383Z,1010.47
2022-10-25T04:38:09.419Z,1010.51
2022-10-25T04:39:09.559Z,1010.49
2022-10-25T04:40:09.475Z,1010.51
2022-10-25T04:43:09.572Z,1010.56
2022-10-25T04:44:09.600Z,1010.63
2022-10-25T04:45:09.637Z,1010.61
2022-10-25T04:46:10.410Z,1010.62
2022-10-25T04:49:10.364Z,1010.63
2022-10-25T04:50:09.791Z,1010.68
2022-10-25T04:51:09.817Z,1010.64
2022-10-25T04:53:09.884Z,1010.62
2022-10-25T04:54:09.925Z,1010.58
2022-10-25T04:56:10.250Z,1010.59
2022-10-25T04:57:10.008Z,1010.58
2022-10-25T04:58:10.041Z,1010.57
2022-10-25T04:59:10.071Z,1010.60
2022-10-25T05:00:10.110Z,1010.59
2022-10-25T05:01:10.195Z,1010.61
2022-10-25T05:02:10.464Z,1010.61
2022-10-25T05:03:13.156Z,1010.63
2022-10-25T05:04:10.232Z,1010.61
2022-10-25T05:05:10.268Z,1010.62
2022-10-25T05:06:10.291Z,1010.60
2022-10-25T05:07:10.320Z,1010.66
2022-10-25T05:08:10.352Z,1010.64
2022-10-25T05:09:10.737Z,1010.64
2022-10-25T05:10:10.416Z,1010.58
2022-10-25T05:11:10.444Z,1010.61
2022-10-25T05:13:10.531Z,1010.61
2022-10-25T05:14:10.542Z,1010.60
2022-10-25T05:15:10.572Z,1010.59
2022-10-25T05:16:10.907Z,1010.67
2022-10-25T05:17:10.650Z,1010.64
2022-10-25T05:18:10.669Z,1010.68
2022-10-25T05:19:10.697Z,1010.64
2022-10-25T05:21:10.764Z,1010.64
2022-10-25T05:22:10.791Z,1010.64
2022-10-25T05:23:11.181Z,1010.63
2022-10-25T05:24:10.856Z,1010.67
2022-10-25T05:25:10.889Z,1010.67
2022-10-25T05:26:10.919Z,1010.65
2022-10-25T05:27:10.960Z,1010.63
2022-10-25T05:28:10.980Z,1010.66
2022-10-25T05:29:11.034Z,1010.63
2022-10-25T05:30:11.375Z,1010.64
2022-10-25T05:32:11.108Z,1010.73
2022-10-25T05:33:11.140Z,1010.74
2022-10-25T05:34:11.169Z,1010.75
2022-10-25T05:36:11.599Z,1010.85
2022-10-25T05:37:11.267Z,1010.76
2022-10-25T05:38:11.295Z,1010.75
2022-10-25T05:39:11.324Z,1010.75
2022-10-25T05:40:11.374Z,1010.78
2022-10-25T05:41:11.391Z,1010.74
2022-10-25T05:43:11.758Z,1010.73
2022-10-25T05:44:11.487Z,1010.72
2022-10-25T05:45:11.551Z,1010.76
2022-10-25T05:47:11.580Z,1010.75
2022-10-25T05:48:11.718Z,1010.78
2022-10-25T05:49:11.643Z,1010.75
2022-10-25T05:50:11.942Z,1010.78
2022-10-25T05:51:28.831Z,1010.81
2022-10-25T05:52:11.839Z,1010.82
2022-10-25T05:53:11.773Z,1010.87
2022-10-25T05:54:11.803Z,1010.85
2022-10-25T05:55:11.836Z,1010.89
2022-10-25T05:56:11.862Z,1010.88
2022-10-25T05:57:12.146Z,1010.90
2022-10-25T05:58:11.931Z,1010.91
2022-10-25T05:59:11.964Z,1010.96
2022-10-25T06:00:12.003Z,1010.99
2022-10-25T06:01:12.211Z,1010.99
2022-10-25T06:02:12.266Z,1011.05
2022-10-25T06:03:12.083Z,1011.02
2022-10-25T06:04:12.421Z,1011.04
2022-10-25T06:05:12.155Z,1011.08
2022-10-25T06:06:12.186Z,1011.10
2022-10-25T06:07:12.219Z,1011.09
2022-10-25T06:08:12.237Z,1011.12
2022-10-25T06:09:12.271Z,1011.12
2022-10-25T06:10:12.305Z,1011.14
2022-10-25T06:11:12.636Z,1011.16
2022-10-25T06:12:12.363Z,1011.12
2022-10-25T06:13:12.462Z,1011.18
2022-10-25T06:14:12.431Z,1011.14
2022-10-25T06:15:12.463Z,1011.17
2022-10-25T06:16:12.490Z,1011.21
2022-10-25T06:17:12.793Z,1011.16
2022-10-25T06:18:12.655Z,1011.15
2022-10-25T06:19:12.587Z,1011.19
2022-10-25T06:20:12.615Z,1011.21
2022-10-25T06:22:12.690Z,1011.22
2022-10-25T06:24:13.041Z,1011.25
2022-10-25T06:25:12.774Z,1011.22
2022-10-25T06:26:12.802Z,1011.28
2022-10-25T06:27:12.838Z,1011.32
2022-10-25T06:28:12.865Z,1011.35
2022-10-25T06:29:12.904Z,1011.31
2022-10-25T06:30:13.346Z,1011.36
2022-10-25T06:31:12.970Z,1011.35
2022-10-25T06:32:13.005Z,1011.33
2022-10-25T06:33:13.049Z,1011.39
2022-10-25T06:34:13.058Z,1011.35
2022-10-25T06:35:13.840Z,1011.39
2022-10-25T06:36:13.424Z,1011.40
2022-10-25T06:37:13.155Z,1011.45
2022-10-25T06:39:13.232Z,1011.48
2022-10-25T06:40:13.288Z,1011.51
2022-10-25T06:41:13.275Z,1011.54
2022-10-25T06:42:13.315Z,1011.56
2022-10-25T06:43:13.588Z,1011.57
2022-10-25T06:44:13.374Z,1011.59
2022-10-25T06:45:13.403Z,1011.58
2022-10-25T06:46:13.432Z,1011.65
2022-10-25T06:47:17.400Z,1011.69
2022-10-25T06:48:13.525Z,1011.64
2022-10-25T06:51:13.923Z,1011.72
2022-10-25T06:52:13.641Z,1011.71
2022-10-25T06:53:13.668Z,1011.75
2022-10-25T06:54:13.686Z,1011.69
2022-10-25T06:55:13.721Z,1011.74
2022-10-25T06:56:14.913Z,1011.72
2022-10-25T06:57:13.881Z,1011.75
2022-10-25T06:58:14.283Z,1011.75
2022-10-25T06:59:13.856Z,1011.76
2022-10-25T07:00:13.875Z,1011.77
2022-10-25T07:01:14.061Z,1011.81
2022-10-25T07:02:14.025Z,1011.76
2022-10-25T07:04:14.311Z,1011.87
2022-10-25T07:06:14.237Z,1011.88
2022-10-25T07:07:14.120Z,1011.90
2022-10-25T07:08:14.132Z,1011.88
2022-10-25T07:09:14.156Z,1011.93
2022-10-25T07:10:14.189Z,1011.91
2022-10-25T07:11:14.523Z,1011.98
2022-10-25T07:13:14.284Z,1012.00
2022-10-25T07:14:14.314Z,1012.06
2022-10-25T07:15:14.410Z,1012.02
2022-10-25T07:16:14.398Z,1012.08
2022-10-25T07:17:14.417Z,1012.07
2022-10-25T07:18:14.739Z,1012.07
2022-10-25T07:19:14.484Z,1012.12
2022-10-25T07:20:14.508Z,1012.13
2022-10-25T07:21:14.586Z,1012.16
2022-10-25T07:22:14.583Z,1012.16
2022-10-25T07:23:14.620Z,1012.21
2022-10-25T07:24:14.640Z,1012.21
2022-10-25T07:25:14.978Z,1012.19
2022-10-25T07:26:14.691Z,1012.25
2022-10-25T07:27:14.753Z,1012.23
2022-10-25T07:28:14.753Z,1012.24
2022-10-25T07:29:14.789Z,1012.28
2022-10-25T07:30:14.829Z,1012.29
2022-10-25T07:31:14.854Z,1012.29
2022-10-25T07:32:15.132Z,1012.29
2022-10-25T07:33:14.913Z,1012.29
2022-10-25T07:34:14.945Z,1012.25
2022-10-25T07:35:14.975Z,1012.28
2022-10-25T07:36:15.019Z,1012.26
2022-10-25T07:37:15.041Z,1012.26
2022-10-25T07:38:15.068Z,1012.28
2022-10-25T07:39:15.429Z,1012.30
2022-10-25T07:40:15.134Z,1012.32
2022-10-25T07:41:15.169Z,1012.36
2022-10-25T07:42:15.197Z,1012.36
2022-10-25T07:43:15.227Z,1012.36
2022-10-25T07:45:18.693Z,1012.33
2022-10-25T07:46:15.325Z,1012.31
2022-10-25T07:47:15.533Z,1012.33
2022-10-25T07:48:15.386Z,1012.31
2022-10-25T07:49:15.419Z,1012.35
2022-10-25T07:50:15.449Z,1012.37
2022-10-25T07:51:15.782Z,1012.38
2022-10-25T07:52:15.510Z,1012.35
2022-10-25T07:53:15.541Z,1012.38
2022-10-25T07:54:15.578Z,1012.38
2022-10-25T07:55:15.639Z,1012.37
2022-10-25T07:56:18.842Z,1012.37
2022-10-25T07:57:15.919Z,1012.36
2022-10-25T07:58:15.701Z,1012.37
2022-10-25T07:59:15.740Z,1012.40
2022-10-25T08:00:15.764Z,1012.38
2022-10-25T08:01:15.821Z,1012.37
2022-10-25T08:02:15.839Z,1012.37
2022-10-25T08:03:16.157Z,1012.39
2022-10-25T08:04:15.895Z,1012.36
2022-10-25T08:05:15.930Z,1012.39
2022-10-25T08:06:15.952Z,1012.38
2022-10-25T08:07:16.010Z,1012.37
2022-10-25T08:08:16.021Z,1012.39
2022-10-25T08:09:33.619Z,1012.43
2022-10-25T08:10:16.335Z,1012.42
2022-10-25T08:11:16.130Z,1012.45
2022-10-25T08:12:20.304Z,1012.43
2022-10-25T08:13:16.180Z,1012.46
2022-10-25T08:14:16.289Z,1012.51
2022-10-25T08:16:16.539Z,1012.52
2022-10-25T08:17:16.354Z,1012.45
2022-10-25T08:18:16.351Z,1012.46
2022-10-25T08:19:16.366Z,1012.48
2022-10-25T08:20:16.401Z,1012.49
2022-10-25T08:21:16.455Z,1012.43
2022-10-25T08:22:16.458Z,1012.42
2022-10-25T08:23:16.803Z,1012.44
2022-10-25T08:24:16.644Z,1012.48
2022-10-25T08:25:16.560Z,1012.47
2022-10-25T08:26:16.624Z,1012.51
2022-10-25T08:27:16.659Z,1012.51
2022-10-25T08:28:16.650Z,1012.51
2022-10-25T08:29:16.683Z,1012.50
2022-10-25T08:30:17.022Z,1012.50
2022-10-25T08:31:16.759Z,1012.49
2022-10-25T08:32:16.796Z,1012.46
2022-10-25T08:33:16.810Z,1012.43
2022-10-25T08:35:16.881Z,1012.48
2022-10-25T08:36:16.906Z,1012.48
2022-10-25T08:38:17.217Z,1012.59
2022-10-25T08:39:17.001Z,1012.51
2022-10-25T08:40:17.042Z,1012.55
2022-10-25T08:41:17.093Z,1012.54
2022-10-25T08:42:17.093Z,1012.56
2022-10-25T08:43:17.156Z,1012.55
2022-10-25T08:44:17.194Z,1012.51
2022-10-25T08:45:17.511Z,1012.55
2022-10-25T08:46:17.222Z,1012.55
2022-10-25T08:47:17.263Z,1012.54
2022-10-25T08:49:17.395Z,1012.52
2022-10-25T08:50:17.355Z,1012.46
2022-10-25T08:51:17.381Z,1012.48
2022-10-25T08:52:17.715Z,1012.45
2022-10-25T08:53:17.547Z,1012.47
2022-10-25T08:54:17.486Z,1012.53
2022-10-25T08:55:17.509Z,1012.56
2022-10-25T08:56:17.914Z,1012.61
2022-10-25T08:57:17.597Z,1012.59
2022-10-25T08:58:17.610Z,1012.62
2022-10-25T08:59:17.963Z,1012.60
2022-10-25T09:00:17.681Z,1012.63
2022-10-25T09:02:17.879Z,1012.67
2022-10-25T09:03:17.763Z,1012.67
2022-10-25T09:04:17.898Z,1012.65
2022-10-25T09:05:17.930Z,1012.63
2022-10-25T09:06:18.162Z,1012.72
2022-10-25T09:07:17.909Z,1012.75
2022-10-25T09:08:17.926Z,1012.75
2022-10-25T09:09:18.082Z,1012.73
2022-10-25T09:10:17.990Z,1012.70
2022-10-25T09:12:18.456Z,1012.75
2022-10-25T09:13:18.086Z,1012.73
2022-10-25T09:14:18.151Z,1012.72
2022-10-25T09:15:18.217Z,1012.69
2022-10-25T09:16:18.197Z,1012.64
2022-10-25T09:17:18.216Z,1012.68
2022-10-25T09:18:18.500Z,1012.75
2022-10-25T09:19:18.282Z,1012.73
2022-10-25T09:20:18.408Z,1012.74
2022-10-25T09:21:22.379Z,1012.66
2022-10-25T09:22:18.380Z,1012.72
2022-10-25T09:24:18.743Z,1012.77
2022-10-25T09:25:18.476Z,1012.81
2022-10-25T09:26:18.557Z,1012.78
2022-10-25T09:27:18.537Z,1012.79
2022-10-25T09:28:18.571Z,1012.82
2022-10-25T09:29:18.604Z,1012.88
2022-10-25T09:30:19.042Z,1012.89
2022-10-25T09:32:18.720Z,1012.93
2022-10-25T09:33:18.766Z,1012.89
2022-10-25T09:34:18.772Z,1012.91
2022-10-25T09:35:18.881Z,1012.91
2022-10-25T09:36:18.833Z,1012.97
2022-10-25T09:37:19.116Z,1013.00
2022-10-25T09:38:18.990Z,1013.03
2022-10-25T09:39:18.950Z,1012.99
2022-10-25T09:40:18.972Z,1012.99
2022-10-25T09:41:19.010Z,1013.01
2022-10-25T09:42:19.053Z,1012.99
2022-10-25T09:43:19.058Z,1013.01
2022-10-25T09:44:19.441Z,1013.00
2022-10-25T09:45:19.123Z,1013.04
2022-10-25T09:46:19.182Z,1013.01
2022-10-25T09:48:19.258Z,1013.00
2022-10-25T09:49:19.257Z,1013.02
2022-10-25T09:50:19.357Z,1012.98
2022-10-25T09:51:19.622Z,1013.05
2022-10-25T09:52:19.380Z,1012.98
2022-10-25T09:53:21.863Z,1013.01
2022-10-25T09:54:19.415Z,1013.06
2022-10-25T09:55:19.551Z,1013.05
2022-10-25T09:56:19.821Z,1013.04
2022-10-25T09:57:19.532Z,1013.04
2022-10-25T09:58:19.797Z,1013.05
2022-10-25T09:59:19.582Z,1013.01
2022-10-25T10:00:19.611Z,1013.02
2022-10-25T10:01:20.102Z,1013.02
2022-10-25T10:03:19.709Z,1013.08
2022-10-25T10:04:19.780Z,1013.10
2022-10-25T10:05:20.085Z,1013.13
2022-10-25T10:06:19.813Z,1013.09
2022-10-25T10:08:19.871Z,1013.09
2022-10-25T10:09:19.907Z,1013.11
2022-10-25T10:10:19.935Z,1013.10
2022-10-25T10:11:19.967Z,1013.09
2022-10-25T10:12:20.303Z,1013.10
2022-10-25T10:13:20.037Z,1013.12
2022-10-25T10:14:20.067Z,1013.16
2022-10-25T10:16:20.132Z,1013.19
2022-10-25T10:17:20.165Z,1013.25
2022-10-25T10:18:20.199Z,1013.24
2022-10-25T10:19:20.475Z,1013.19
2022-10-25T10:21:20.321Z,1013.20
2022-10-25T10:22:20.331Z,1013.19
2022-10-25T10:23:20.361Z,1013.27
2022-10-25T10:24:20.400Z,1013.27
2022-10-25T10:25:20.428Z,1013.31
2022-10-25T10:26:20.754Z,1013.30
2022-10-25T10:27:20.490Z,1013.26
2022-10-25T10:28:20.524Z,1013.31
2022-10-25T10:29:20.551Z,1013.28
2022-10-25T10:31:20.621Z,1013.29
2022-10-25T10:32:20.649Z,1013.35
2022-10-25T10:33:20.986Z,1013.38
2022-10-25T10:34:20.715Z,1013.35
2022-10-25T10:35:20.750Z,1013.38
2022-10-25T10:36:20.781Z,1013.41
2022-10-25T10:37:20.887Z,1013.35
2022-10-25T10:38:20.844Z,1013.36
2022-10-25T10:39:20.944Z,1013.35
2022-10-25T10:40:21.214Z,1013.35
2022-10-25T10:41:20.943Z,1013.30
2022-10-25T10:42:21.043Z,1013.32
2022-10-25T10:43:21.012Z,1013.34
2022-10-25T10:44:21.061Z,1013.35
2022-10-25T10:45:21.080Z,1013.33
2022-10-25T10:46:21.367Z,1013.37
2022-10-25T10:48:21.172Z,1013.30
2022-10-25T10:49:21.207Z,1013.31
2022-10-25T10:53:21.356Z,1013.38
2022-10-25T10:55:21.454Z,1013.38
2022-10-25T10:56:21.431Z,1013.37
2022-10-25T10:57:21.470Z,1013.36
2022-10-25T10:58:21.804Z,1013.35
2022-10-25T10:59:21.531Z,1013.38
2022-10-25T11:00:21.569Z,1013.37
2022-10-25T11:01:21.711Z,1013.44
2022-10-25T11:02:21.958Z,1013.47
2022-10-25T11:03:21.662Z,1013.51
2022-10-25T11:04:24.071Z,1013.47
2022-10-25T11:05:22.028Z,1013.46
2022-10-25T11:06:21.758Z,1013.45
2022-10-25T11:07:21.788Z,1013.47
2022-10-25T11:08:21.824Z,1013.40
2022-10-25T11:09:21.898Z,1013.43
2022-10-25T11:10:21.904Z,1013.37
2022-10-25T11:11:21.920Z,1013.42
2022-10-25T11:12:22.206Z,1013.41
2022-10-25T11:13:22.073Z,1013.42
2022-10-25T11:14:22.023Z,1013.44
2022-10-25T11:15:22.050Z,1013.38
2022-10-25T11:16:24.404Z,1013.35
2022-10-25T11:17:22.129Z,1013.32
2022-10-25T11:18:22.158Z,1013.27
2022-10-25T11:19:22.433Z,1013.36
2022-10-25T11:20:22.229Z,1013.36
2022-10-25T11:21:22.254Z,1013.38
2022-10-25T11:22:22.403Z,1013.35
2022-10-25T11:23:22.401Z,1013.31
2022-10-25T11:24:22.397Z,1013.28
2022-10-25T11:25:22.540Z,1013.26
2022-10-25T11:26:22.666Z,1013.28
2022-10-25T11:27:22.444Z,1013.28
2022-10-25T11:30:22.581Z,1013.33
2022-10-25T11:31:22.623Z,1013.26
2022-10-25T11:32:22.627Z,1013.30
2022-10-25T11:33:22.889Z,1013.27
2022-10-25T11:34:22.675Z,1013.31
2022-10-25T11:35:22.707Z,1013.33
2022-10-25T11:36:23.080Z,1013.30
2022-10-25T11:37:22.775Z,1013.37
2022-10-25T11:38:22.891Z,1013.34
2022-10-25T11:39:22.839Z,1013.34
2022-10-25T11:40:23.171Z,1013.27
2022-10-25T11:41:23.020Z,1013.24
2022-10-25T11:43:23.126Z,1013.25
2022-10-25T11:45:23.045Z,1013.24
2022-10-25T11:46:23.066Z,1013.22
2022-10-25T11:47:23.354Z,1013.20
2022-10-25T11:48:23.151Z,1013.23
2022-10-25T11:50:23.203Z,1013.27
2022-10-25T11:51:23.233Z,1013.26
2022-10-25T11:52:23.270Z,1013.32
2022-10-25T11:53:23.295Z,1013.37
2022-10-25T11:54:23.584Z,1013.32
2022-10-25T11:55:23.364Z,1013.33
2022-10-25T11:56:23.423Z,1013.27
2022-10-25T11:57:23.554Z,1013.32
2022-10-25T11:58:23.462Z,1013.33
2022-10-25T11:59:23.496Z,1013.37
2022-10-25T12:00:23.607Z,1013.37
2022-10-25T12:01:23.823Z,1013.34
2022-10-25T12:02:23.683Z,1013.35
2022-10-25T12:03:23.636Z,1013.36
2022-10-25T12:04:26.923Z,1013.37
2022-10-25T12:05:23.701Z,1013.42
2022-10-25T12:06:23.725Z,1013.45
2022-10-25T12:07:23.760Z,1013.40
2022-10-25T12:08:24.097Z,1013.37
2022-10-25T12:09:23.825Z,1013.41
2022-10-25T12:10:23.858Z,1013.39
2022-10-25T12:11:23.897Z,1013.36
2022-10-25T12:12:23.938Z,1013.38
2022-10-25T12:13:24.091Z,1013.34
2022-10-25T12:14:23.989Z,1013.34
2022-10-25T12:15:24.339Z,1013.31
2022-10-25T12:16:24.054Z,1013.30
2022-10-25T12:17:24.094Z,1013.24
2022-10-25T12:18:26.206Z,1013.27
2022-10-25T12:19:24.159Z,1013.32
2022-10-25T12:20:24.381Z,1013.27
2022-10-25T12:21:24.228Z,1013.30
2022-10-25T12:22:24.907Z,1013.26
2022-10-25T12:23:24.293Z,1013.28
2022-10-25T12:24:24.323Z,1013.30
2022-10-25T12:25:24.350Z,1013.30
2022-10-25T12:26:24.383Z,1013.33
2022-10-25T12:27:24.542Z,1013.30
2022-10-25T12:28:24.758Z,1013.33
2022-10-25T12:29:24.598Z,1013.29
2022-10-25T12:31:24.563Z,1013.30
2022-10-25T12:32:24.592Z,1013.29
2022-10-25T12:33:24.622Z,1013.32
2022-10-25T12:34:24.952Z,1013.35
2022-10-25T12:35:24.794Z,1013.38
2022-10-25T12:37:24.752Z,1013.36
2022-10-25T12:38:24.785Z,1013.35
2022-10-25T12:39:24.971Z,1013.37
2022-10-25T12:41:24.916Z,1013.30
2022-10-25T12:42:24.911Z,1013.30
2022-10-25T12:43:24.956Z,1013.22
2022-10-25T12:44:25.084Z,1013.23
2022-10-25T12:45:25.171Z,1013.24
2022-10-25T12:46:25.044Z,1013.23
2022-10-25T12:48:25.417Z,1013.21
2022-10-25T12:49:25.250Z,1013.21
2022-10-25T12:50:25.272Z,1013.18
2022-10-25T12:51:25.344Z,1013.17
2022-10-25T12:52:25.247Z,1013.17
2022-10-25T12:53:25.286Z,1013.16
2022-10-25T12:54:25.568Z,1013.13
2022-10-25T12:55:25.384Z,1013.14
2022-10-25T12:56:25.377Z,1013.12
2022-10-25T12:57:25.409Z,1013.13
2022-10-25T12:58:25.450Z,1013.15
2022-10-25T13:02:26.005Z,1013.23
2022-10-25T13:03:25.653Z,1013.28
2022-10-25T13:04:25.683Z,1013.23
2022-10-25T13:05:25.783Z,1013.22
2022-10-25T13:06:25.729Z,1013.20
2022-10-25T13:07:25.745Z,1013.23
2022-10-25T13:08:25.773Z,1013.22
2022-10-25T13:09:27.263Z,1013.25
2022-10-25T13:11:26.088Z,1013.17
2022-10-25T13:12:26.079Z,1013.17
2022-10-25T13:13:25.983Z,1013.12
2022-10-25T13:14:26.159Z,1013.14
2022-10-25T13:15:26.011Z,1013.10
2022-10-25T13:16:26.291Z,1013.15
2022-10-25T13:18:26.220Z,1013.10
2022-10-25T13:19:42.786Z,1013.11
2022-10-25T13:20:26.176Z,1013.07
2022-10-25T13:21:26.214Z,1013.08
2022-10-25T13:22:26.236Z,1013.09
2022-10-25T13:23:26.577Z,1013.10
2022-10-25T13:24:26.319Z,1013.10
2022-10-25T13:25:26.400Z,1013.13
2022-10-25T13:26:26.375Z,1013.11
2022-10-25T13:27:26.429Z,1013.12